createdAt,value
2022-08-12T00:01:09.599Z,101989.31
2022-08-12T00:03:55.507Z,101989.41
2022-08-12T00:06:43.659Z,101985.84
2022-08-12T00:09:29.388Z,101972.56
2022-08-12T00:12:15.194Z,101983.13
2022-08-12T00:15:02.550Z,101991.16
2022-08-12T00:17:48.895Z,101987.59
2022-08-12T00:20:34.785Z,101970.81
2022-08-12T00:23:22.109Z,101985.00
2022-08-12T00:26:23.294Z,101959.44
2022-08-12T00:29:11.802Z,101966.59
2022-08-12T00:31:58.279Z,101987.75
2022-08-12T00:34:46.568Z,101993.03
2022-08-12T00:37:35.362Z,101978.91
2022-08-12T00:40:24.577Z,101940.16
2022-08-12T00:42:54.027Z,101971.94
2022-08-12T00:45:22.570Z,101977.25
2022-08-12T00:47:53.061Z,101958.66
2022-08-12T00:50:23.835Z,101974.59
2022-08-12T00:52:53.902Z,101969.34
2022-08-12T00:55:23.597Z,101987.84
2022-08-12T00:57:52.772Z,101957.88
2022-08-12T01:00:24.131Z,101987.97
2022-08-12T01:02:57.421Z,101981.75
2022-08-12T01:05:44.768Z,101985.28
2022-08-12T01:08:45.147Z,101994.19
2022-08-12T01:11:31.430Z,101992.41
2022-08-12T01:14:01.739Z,101991.56
2022-08-12T01:16:30.874Z,101990.75
2022-08-12T01:19:00.847Z,101997.78
2022-08-12T01:22:04.313Z,101943.00
2022-08-12T01:24:57.183Z,101970.41
2022-08-12T01:27:27.616Z,101984.56
2022-08-12T01:29:59.216Z,101966.03
2022-08-12T01:32:30.224Z,101992.56
2022-08-12T01:35:05.727Z,101967.88
2022-08-12T01:37:39.221Z,101990.81
2022-08-12T01:40:36.250Z,101981.09
2022-08-12T01:43:06.736Z,101982.00
2022-08-12T01:45:43.003Z,101965.25
2022-08-12T01:48:25.410Z,101958.19
2022-08-12T01:51:06.498Z,101974.06
2022-08-12T01:53:51.436Z,101951.97
2022-08-12T01:56:26.437Z,101965.19
2022-08-12T01:59:19.407Z,101974.13
2022-08-12T02:01:51.459Z,101969.72
2022-08-12T02:04:52.760Z,101948.53
2022-08-12T02:07:55.170Z,101956.50
2022-08-12T02:10:53.622Z,101954.69
2022-08-12T02:13:49.970Z,101951.19
2022-08-12T02:16:37.942Z,101946.72
2022-08-12T02:19:30.790Z,101962.63
2022-08-12T02:22:13.193Z,101961.72
2022-08-12T02:24:45.265Z,101959.09
2022-08-12T02:27:16.368Z,101947.59
2022-08-12T02:29:46.192Z,101953.75
2022-08-12T02:32:15.542Z,101955.50
2022-08-12T02:34:45.852Z,101884.88
2022-08-12T02:37:16.817Z,101949.28
2022-08-12T02:39:50.245Z,101924.66
2022-08-12T02:42:22.182Z,101909.56
2022-08-12T02:44:56.274Z,101932.53
2022-08-12T02:48:00.356Z,101951.09
2022-08-12T02:50:20.462Z,101921.97
2022-08-12T02:52:49.816Z,101929.97
2022-08-12T02:55:34.586Z,101949.41
2022-08-12T02:58:12.715Z,101942.38
2022-08-12T03:00:45.534Z,101942.31
2022-08-12T03:03:15.709Z,101908.81
2022-08-12T03:05:52.554Z,101940.56
2022-08-12T03:08:31.930Z,101945.00
2022-08-12T03:11:07.875Z,101936.13
2022-08-12T03:13:48.456Z,101922.91
2022-08-12T03:16:19.475Z,101931.78
2022-08-12T03:18:49.739Z,101920.28
2022-08-12T03:21:59.912Z,101934.41
2022-08-12T03:24:10.033Z,101934.41
2022-08-12T03:26:38.979Z,101897.38
2022-08-12T03:29:08.311Z,101912.44
2022-08-12T03:31:38.051Z,101908.03
2022-08-12T03:34:09.522Z,101942.47
2022-08-12T03:36:40.936Z,101941.59
2022-08-12T03:39:36.196Z,101907.22
2022-08-12T03:42:28.705Z,101934.56
2022-08-12T03:45:42.023Z,101934.56
2022-08-12T03:48:40.044Z,101910.81
2022-08-12T03:51:27.512Z,101939.13
2022-08-12T03:54:13.995Z,101944.44
2022-08-12T03:56:59.984Z,101936.47
2022-08-12T03:59:45.981Z,101944.41
2022-08-12T04:02:16.323Z,101920.53
2022-08-12T04:04:47.312Z,101938.25
2022-08-12T04:07:18.333Z,101938.19
2022-08-12T04:09:48.008Z,101912.56
2022-08-12T04:12:34.497Z,101918.75
2022-08-12T04:15:05.597Z,101939.94
2022-08-12T04:17:35.554Z,101904.63
2022-08-12T04:20:11.259Z,101914.34
2022-08-12T04:22:40.726Z,101895.78
2022-08-12T04:25:12.958Z,101932.94
2022-08-12T04:27:46.214Z,101887.00
2022-08-12T04:30:29.821Z,101934.69
2022-08-12T04:33:01.445Z,101917.94
2022-08-12T04:35:32.215Z,101907.31
2022-08-12T04:38:01.194Z,101930.31
2022-08-12T04:40:32.620Z,101915.31
2022-08-12T04:43:02.172Z,101907.31
2022-08-12T04:45:31.367Z,101927.66
2022-08-12T04:48:01.899Z,101925.88
2022-08-12T04:50:36.284Z,101905.59
2022-08-12T04:53:08.306Z,101918.78
2022-08-12T04:55:39.213Z,101936.50
2022-08-12T04:58:08.478Z,101926.78
2022-08-12T05:00:37.963Z,101946.25
2022-08-12T05:03:07.526Z,101936.50
2022-08-12T05:05:38.638Z,101939.13
2022-08-12T05:08:12.811Z,101916.16
2022-08-12T05:10:41.662Z,101946.22
2022-08-12T05:13:14.367Z,101938.25
2022-08-12T05:16:03.729Z,101944.41
2022-08-12T05:18:33.693Z,101955.88
2022-08-12T05:21:05.403Z,101932.91
2022-08-12T05:23:33.929Z,101942.56
2022-08-12T05:26:02.244Z,101946.97
2022-08-12T05:28:31.119Z,101954.03
2022-08-12T05:31:02.096Z,101918.75
2022-08-12T05:33:37.651Z,101939.91
2022-08-12T05:36:12.220Z,101924.88
2022-08-12T05:38:59.851Z,101956.63
2022-08-12T05:41:31.117Z,101956.63
2022-08-12T05:44:01.655Z,101961.03
2022-08-12T05:46:31.763Z,101941.56
2022-08-12T05:49:01.635Z,101945.03
2022-08-12T05:51:40.158Z,101938.84
2022-08-12T05:54:11.729Z,101967.09
2022-08-12T05:56:41.957Z,101945.88
2022-08-12T05:59:13.971Z,101964.47
2022-08-12T06:02:10.083Z,101971.50
2022-08-12T06:04:33.233Z,101944.06
2022-08-12T06:07:37.313Z,101957.28
2022-08-12T06:09:52.192Z,101964.28
2022-08-12T06:12:23.663Z,101968.69
2022-08-12T06:14:55.664Z,101967.81
2022-08-12T06:17:24.013Z,101974.84
2022-08-12T06:20:26.731Z,101939.53
2022-08-12T06:22:42.267Z,101947.41
2022-08-12T06:25:11.145Z,101971.13
2022-08-12T06:28:07.552Z,101964.03
2022-08-12T06:30:39.370Z,101947.25
2022-08-12T06:33:21.495Z,101932.13
2022-08-12T06:35:57.804Z,101940.97
2022-08-12T06:38:31.381Z,101944.31
2022-08-12T06:41:19.761Z,101940.84
2022-08-12T06:44:05.776Z,101961.88
2022-08-12T06:46:38.925Z,101949.53
2022-08-12T06:49:08.665Z,101964.47
2022-08-12T06:51:36.987Z,101955.56
2022-08-12T06:54:07.266Z,101947.56
2022-08-12T06:59:25.069Z,101956.22
2022-08-12T07:01:54.962Z,101943.75
2022-08-12T07:04:36.201Z,101949.88
2022-08-12T07:07:07.151Z,101948.84
2022-08-12T07:10:04.419Z,101953.22
2022-08-12T07:12:28.011Z,101951.25
2022-08-12T07:14:57.377Z,101950.31
2022-08-12T07:17:25.963Z,101954.75
2022-08-12T07:19:58.022Z,101916.72
2022-08-12T07:22:28.845Z,101944.69
2022-08-12T07:25:15.914Z,101954.25
2022-08-12T07:27:46.560Z,101960.22
2022-08-12T07:30:15.396Z,101943.56
2022-08-12T07:32:51.500Z,101953.94
2022-08-12T07:35:20.444Z,101944.06
2022-08-12T07:37:50.420Z,101923.66
2022-08-12T07:40:21.485Z,101937.00
2022-08-12T07:42:49.776Z,101921.72
2022-08-12T07:45:20.381Z,101961.06
2022-08-12T07:47:51.253Z,101952.81
2022-08-12T07:50:23.788Z,101961.50
2022-08-12T07:52:52.439Z,101967.53
2022-08-12T07:55:22.184Z,101946.03
2022-08-12T07:57:55.845Z,101966.19
2022-08-12T08:00:24.957Z,101950.97
2022-08-12T08:02:54.580Z,101964.75
2022-08-12T08:05:25.618Z,101945.84
2022-08-12T08:07:55.914Z,101958.59
2022-08-12T08:10:26.217Z,101959.28
2022-08-12T08:12:53.676Z,101960.94
2022-08-12T08:15:38.612Z,101883.25
2022-08-12T08:18:26.890Z,101948.78
2022-08-12T08:20:57.440Z,101920.44
2022-08-12T08:23:55.858Z,101951.91
2022-08-12T08:26:27.260Z,101943.38
2022-08-12T08:28:55.825Z,101940.00
2022-08-12T08:31:24.252Z,101950.78
2022-08-12T08:34:09.193Z,101913.84
2022-08-12T08:36:43.640Z,101939.53
2022-08-12T08:39:17.919Z,101934.16
2022-08-12T08:42:17.302Z,101942.69
2022-08-12T08:44:50.365Z,101949.97
2022-08-12T08:47:27.122Z,101945.53
2022-08-12T08:50:00.981Z,101953.28
2022-08-12T08:52:40.030Z,101949.81
2022-08-12T08:55:11.504Z,101936.72
2022-08-12T08:57:44.667Z,101937.97
2022-08-12T09:00:18.100Z,101945.38
2022-08-12T09:02:49.098Z,101951.03
2022-08-12T09:05:26.786Z,101945.59
2022-08-12T09:08:09.109Z,101948.47
2022-08-12T09:10:45.833Z,101935.53
2022-08-12T09:14:11.764Z,101951.91
2022-08-12T09:16:23.221Z,101926.25
2022-08-12T09:18:52.506Z,101920.03
2022-08-12T09:21:23.123Z,101934.50
2022-08-12T09:30:11.804Z,101921.16
2022-08-12T09:32:55.705Z,101937.16
2022-08-12T09:35:22.215Z,101926.19
2022-08-12T09:37:58.330Z,101917.19
2022-08-12T09:41:01.739Z,101928.59
2022-08-12T09:43:37.908Z,101931.78
2022-08-12T09:46:25.043Z,101913.41
2022-08-12T09:48:56.131Z,101925.84
2022-08-12T09:51:35.609Z,101896.88
2022-08-12T09:54:31.051Z,101924.31
2022-08-12T09:57:00.985Z,101907.50
2022-08-12T10:00:14.855Z,101910.41
2022-08-12T10:02:52.744Z,101903.31
2022-08-12T10:05:13.198Z,101898.59
2022-08-12T10:07:42.763Z,101904.38
2022-08-12T10:10:22.249Z,101900.56
2022-08-12T10:13:14.048Z,101894.25
2022-08-12T10:16:02.952Z,101900.06
2022-08-12T10:18:52.396Z,101871.41
2022-08-12T10:21:23.375Z,101890.31
2022-08-12T10:23:56.904Z,101884.78
2022-08-12T10:26:44.702Z,101861.63
2022-08-12T10:30:37.235Z,101870.28
2022-08-12T10:33:02.439Z,101874.97
2022-08-12T10:35:16.396Z,101869.84
2022-08-12T10:38:35.453Z,101866.88
2022-08-12T10:40:58.569Z,101841.44
2022-08-12T10:43:55.508Z,101846.38
2022-08-12T10:46:30.846Z,101858.69
2022-08-12T10:49:06.957Z,101845.53
2022-08-12T10:52:03.661Z,101818.44
2022-08-12T10:54:41.403Z,101830.75
2022-08-12T10:57:18.481Z,101842.81
2022-08-12T11:00:33.936Z,101817.59
2022-08-12T11:04:25.040Z,101842.03
2022-08-12T11:07:05.073Z,101835.22
2022-08-12T11:08:43.695Z,101836.06
2022-08-12T11:12:35.771Z,101820.78
2022-08-12T11:14:09.096Z,101829.47
2022-08-12T11:17:34.585Z,101815.69
2022-08-12T11:19:46.388Z,101804.66
2022-08-12T11:22:14.681Z,101816.19
2022-08-12T11:24:51.318Z,101814.56
2022-08-12T11:27:20.283Z,101823.38
2022-08-12T11:30:05.225Z,101813.06
2022-08-12T11:32:38.426Z,101805.38
2022-08-12T11:35:11.716Z,101807.75
2022-08-12T11:37:58.411Z,101804.88
2022-08-12T11:40:29.939Z,101804.59
2022-08-12T11:43:03.628Z,101788.38
2022-08-12T11:45:52.895Z,101804.00
2022-08-12T11:48:26.899Z,101805.00
2022-08-12T11:50:56.486Z,101798.91
2022-08-12T11:53:58.460Z,101795.03
2022-08-12T11:56:14.376Z,101791.34
2022-08-12T12:02:01.389Z,101774.66
2022-08-12T12:04:28.724Z,101790.91
2022-08-12T12:07:07.340Z,101782.22
2022-08-12T12:09:51.856Z,101781.09
2022-08-12T12:12:26.561Z,101769.19
2022-08-12T12:15:03.052Z,101777.47
2022-08-12T12:17:38.106Z,101756.78
2022-08-12T12:20:09.950Z,101753.66
2022-08-12T12:22:40.756Z,101774.22
2022-08-12T12:25:13.020Z,101766.09
2022-08-12T12:28:04.891Z,101768.81
2022-08-12T12:30:35.217Z,101774.75
2022-08-12T12:33:05.413Z,101747.63
2022-08-12T12:36:17.148Z,101769.63
2022-08-12T12:38:25.204Z,101762.53
2022-08-12T12:40:55.217Z,101758.00
2022-08-12T12:43:29.125Z,101757.44
2022-08-12T12:46:11.577Z,101747.59
2022-08-12T12:48:44.119Z,101731.31
2022-08-12T12:51:49.109Z,101730.50
2022-08-12T12:54:10.084Z,101745.63
2022-08-12T12:56:42.856Z,101746.09
2022-08-12T12:59:55.202Z,101739.66
2022-08-12T13:02:08.226Z,101737.84
2022-08-12T13:04:38.125Z,101714.50
2022-08-12T13:07:07.896Z,101729.03
2022-08-12T13:09:36.967Z,101720.81
2022-08-12T13:12:10.802Z,101725.16
2022-08-12T13:14:40.599Z,101717.03
2022-08-12T13:17:14.635Z,101712.56
2022-08-12T13:19:48.306Z,101724.16
2022-08-12T13:22:23.602Z,101714.63
2022-08-12T13:24:56.366Z,101715.19
2022-08-12T13:27:35.181Z,101700.91
2022-08-12T13:30:12.375Z,101696.69
2022-08-12T13:32:43.568Z,101703.81
2022-08-12T13:36:03.022Z,101710.84
2022-08-12T13:38:13.628Z,101707.84
2022-08-12T13:40:42.160Z,101722.56
2022-08-12T13:43:40.637Z,101712.34
2022-08-12T13:46:12.104Z,101713.69
2022-08-12T13:48:45.184Z,101707.88
2022-08-12T13:51:14.181Z,101701.88
2022-08-12T13:53:57.655Z,101708.81
2022-08-12T13:56:35.153Z,101711.16
2022-08-12T13:59:08.033Z,101692.84
2022-08-12T14:01:40.372Z,101690.91
2022-08-12T14:04:11.935Z,101685.19
2022-08-12T14:06:40.825Z,101697.16
2022-08-12T14:09:17.483Z,101670.56
2022-08-12T14:11:58.394Z,101683.22
2022-08-12T14:14:31.525Z,101674.06
2022-08-12T14:17:10.896Z,101688.38
2022-08-12T14:20:00.731Z,101679.72
2022-08-12T14:22:30.386Z,101676.31
2022-08-12T14:25:01.288Z,101675.94
2022-08-12T14:28:04.120Z,101661.81
2022-08-12T14:30:29.142Z,101667.22
2022-08-12T14:33:03.329Z,101668.75
2022-08-12T14:35:33.940Z,101675.00
2022-08-12T14:38:25.885Z,101666.34
2022-08-12T14:40:57.702Z,101641.94
2022-08-12T14:43:31.622Z,101644.13
2022-08-12T14:46:16.146Z,101647.06
2022-08-12T14:48:50.914Z,101633.84
2022-08-12T14:52:54.092Z,101636.19
2022-08-12T14:56:59.779Z,101645.63
2022-08-12T14:57:20.490Z,101650.78
2022-08-12T15:00:04.410Z,101649.19
2022-08-12T15:02:32.661Z,101649.06
2022-08-12T15:05:03.460Z,101645.47
2022-08-12T15:07:33.609Z,101660.19
2022-08-12T15:10:31.368Z,101645.88
2022-08-12T15:13:07.544Z,101636.25
2022-08-12T15:15:44.136Z,101638.59
2022-08-12T15:18:21.074Z,101631.78
2022-08-12T15:20:54.751Z,101643.56
2022-08-12T15:23:24.434Z,101630.69
2022-08-12T15:26:02.589Z,101613.13
2022-08-12T15:28:34.987Z,101632.81
2022-08-12T15:31:21.570Z,101644.88
2022-08-12T15:33:54.525Z,101630.31
2022-08-12T15:36:50.244Z,101640.38
2022-08-12T15:39:16.489Z,101613.75
2022-08-12T15:41:49.165Z,101621.25
2022-08-12T15:44:42.273Z,101622.16
2022-08-12T15:47:06.656Z,101621.81
2022-08-12T15:49:54.292Z,101619.28
2022-08-12T15:52:29.956Z,101608.06
2022-08-12T15:55:06.281Z,101610.28
2022-08-12T15:57:53.236Z,101609.81
2022-08-12T16:00:33.173Z,101592.69
2022-08-12T16:03:08.496Z,101598.88
2022-08-12T16:06:11.027Z,101594.91
2022-08-12T16:08:42.366Z,101602.63
2022-08-12T16:11:14.821Z,101611.53
2022-08-12T16:13:44.477Z,101592.81
2022-08-12T16:16:23.786Z,101596.63
2022-08-12T16:18:59.545Z,101592.16
2022-08-12T16:21:51.328Z,101586.41
2022-08-12T16:24:20.481Z,101587.28
2022-08-12T16:26:54.346Z,101595.56
2022-08-12T16:29:49.353Z,101582.38
2022-08-12T16:32:23.177Z,101590.41
2022-08-12T16:34:55.907Z,101598.59
2022-08-12T16:38:05.041Z,101599.38
2022-08-12T16:40:15.988Z,101590.72
2022-08-12T16:42:54.133Z,101574.63
2022-08-12T16:46:05.170Z,101572.91
2022-08-12T16:48:34.900Z,101577.94
2022-08-12T16:51:09.334Z,101579.28
2022-08-12T16:53:44.673Z,101571.09
2022-08-12T16:56:17.224Z,101572.38
2022-08-12T16:58:47.031Z,101556.41
2022-08-12T17:01:15.736Z,101576.38
2022-08-12T17:03:52.832Z,101576.34
2022-08-12T17:06:27.630Z,101569.06
2022-08-12T17:09:08.778Z,101574.13
2022-08-12T17:11:49.179Z,101569.75
2022-08-12T17:14:20.368Z,101579.66
2022-08-12T17:16:54.901Z,101575.28
2022-08-12T17:20:12.140Z,101570.16
2022-08-12T17:22:16.555Z,101570.56
2022-08-12T17:24:55.428Z,101565.72
2022-08-12T17:27:26.607Z,101556.72
2022-08-12T17:30:04.712Z,101567.59
2022-08-12T17:32:37.195Z,101581.91
2022-08-12T17:35:29.617Z,101570.81
2022-08-12T17:38:02.158Z,101583.81
2022-08-12T17:40:35.904Z,101565.59
2022-08-12T17:43:52.045Z,101578.34
2022-08-12T17:45:59.841Z,101558.78
2022-08-12T17:48:34.812Z,101579.03
2022-08-12T17:51:15.610Z,101584.81
2022-08-12T17:54:06.060Z,101551.97
2022-08-12T17:56:37.906Z,101576.00
2022-08-12T17:59:12.747Z,101581.44
2022-08-12T18:01:45.510Z,101572.06
2022-08-12T18:04:22.987Z,101559.97
2022-08-12T18:07:08.426Z,101580.75
2022-08-12T18:09:37.838Z,101569.66
2022-08-12T18:12:26.611Z,101576.53
2022-08-12T18:15:00.504Z,101585.31
2022-08-12T18:17:32.339Z,101585.09
2022-08-12T18:20:15.546Z,101580.91
2022-08-12T18:22:47.514Z,101583.34
2022-08-12T18:26:16.755Z,101591.06
2022-08-12T18:28:28.159Z,101592.78
2022-08-12T18:31:03.362Z,101595.31
2022-08-12T18:33:41.694Z,101580.44
2022-08-12T18:36:22.504Z,101582.06
2022-08-12T18:38:56.038Z,101602.16
2022-08-12T18:41:32.103Z,101574.16
2022-08-12T18:44:07.929Z,101570.53
2022-08-12T18:46:48.891Z,101610.53
2022-08-12T18:49:31.582Z,101613.63
2022-08-12T18:52:04.680Z,101591.06
2022-08-12T18:54:41.405Z,101616.53
2022-08-12T18:57:19.797Z,101615.75
2022-08-12T19:00:13.123Z,101611.31
2022-08-12T19:02:44.362Z,101621.06
2022-08-12T19:05:17.573Z,101612.50
2022-08-12T19:08:01.806Z,101592.25
2022-08-12T19:10:32.415Z,101612.78
2022-08-12T19:13:24.271Z,101610.97
2022-08-12T19:15:57.489Z,101608.38
2022-08-12T19:18:31.117Z,101617.38
2022-08-12T19:21:06.661Z,101603.94
2022-08-12T19:23:43.964Z,101622.94
2022-08-12T19:26:13.241Z,101625.44
2022-08-12T19:28:51.712Z,101634.97
2022-08-12T19:31:55.789Z,101631.78
2022-08-12T19:37:27.188Z,101636.63
2022-08-12T19:40:09.495Z,101611.13
2022-08-12T19:42:53.603Z,101612.78
2022-08-12T19:45:22.946Z,101643.22
2022-08-12T19:47:51.277Z,101651.44
2022-08-12T19:50:20.904Z,101649.50
2022-08-12T19:52:51.051Z,101643.69
2022-08-12T19:55:22.868Z,101643.41
2022-08-12T19:58:01.927Z,101653.25
2022-08-12T20:00:34.499Z,101652.34
2022-08-12T20:03:05.311Z,101620.34
2022-08-12T20:06:06.333Z,101623.28
2022-08-12T20:08:31.436Z,101643.03
2022-08-12T20:12:13.088Z,101651.09
2022-08-12T20:14:00.536Z,101649.69
2022-08-12T20:19:52.731Z,101641.84
2022-08-12T20:22:23.841Z,101639.47
2022-08-12T20:25:06.785Z,101657.47
2022-08-12T20:28:04.298Z,101658.78
2022-08-12T20:30:37.906Z,101662.22
2022-08-12T20:33:18.475Z,101661.56
2022-08-12T20:36:07.066Z,101656.34
2022-08-12T20:38:46.041Z,101650.19
2022-08-12T20:41:19.268Z,101659.47
2022-08-12T20:43:50.660Z,101656.97
2022-08-12T20:46:21.456Z,101656.50
2022-08-12T20:48:54.581Z,101652.41
2022-08-12T20:51:27.621Z,101657.72
2022-08-12T20:54:00.160Z,101637.06
2022-08-12T20:56:32.969Z,101661.59
2022-08-12T20:59:06.994Z,101657.28
2022-08-12T21:01:36.659Z,101663.53
2022-08-12T21:04:34.245Z,101644.34
2022-08-12T21:07:09.734Z,101645.41
2022-08-12T21:09:44.622Z,101635.28
2022-08-12T21:12:27.833Z,101654.56
2022-08-12T21:15:23.707Z,101647.66
2022-08-12T21:18:11.439Z,101632.28
2022-08-12T21:20:53.117Z,101634.00
2022-08-12T21:23:23.561Z,101662.50
2022-08-12T21:26:01.278Z,101637.28
2022-08-12T21:28:31.186Z,101663.81
2022-08-12T21:32:34.533Z,101623.44
2022-08-12T21:34:08.769Z,101649.75
2022-08-12T21:36:43.423Z,101651.78
2022-08-12T21:39:21.400Z,101636.97
2022-08-12T21:41:53.755Z,101655.53
2022-08-12T21:45:47.900Z,101643.47
2022-08-12T21:47:21.196Z,101597.84
2022-08-12T21:50:02.917Z,101639.34
2022-08-12T21:52:36.011Z,101646.56
2022-08-12T21:55:08.447Z,101641.59
2022-08-12T21:57:53.541Z,101640.78
2022-08-12T22:00:33.592Z,101661.81
2022-08-12T22:04:02.028Z,101638.16
2022-08-12T22:06:30.692Z,101662.81
2022-08-12T22:09:16.571Z,101646.41
2022-08-12T22:11:56.052Z,101643.81
2022-08-12T22:14:29.021Z,101664.94
2022-08-12T22:17:00.786Z,101646.66
2022-08-12T22:19:33.781Z,101656.34
2022-08-12T22:22:05.325Z,101665.16
2022-08-12T22:24:34.182Z,101654.81
2022-08-12T22:27:08.132Z,101639.06
2022-08-12T22:30:11.218Z,101652.41
2022-08-12T22:32:49.880Z,101677.03
2022-08-12T22:35:47.690Z,101669.06
2022-08-12T22:38:26.489Z,101671.72
2022-08-12T22:40:58.538Z,101642.78
2022-08-12T22:43:59.555Z,101655.13
2022-08-12T22:46:53.104Z,101669.34
2022-08-12T22:49:25.988Z,101672.88
2022-08-12T22:52:08.214Z,101642.91
2022-08-12T22:54:37.898Z,101654.44
2022-08-12T22:57:53.291Z,101657.91
2022-08-12T23:00:24.170Z,101662.50
2022-08-12T23:03:02.997Z,101668.75
2022-08-12T23:05:56.704Z,101663.53
2022-08-12T23:08:29.888Z,101644.97
2022-08-12T23:11:00.064Z,101665.34
2022-08-12T23:13:49.095Z,101663.63
2022-08-12T23:16:31.181Z,101662.81
2022-08-12T23:19:10.354Z,101661.94
2022-08-12T23:22:06.482Z,101642.72
2022-08-12T23:24:55.654Z,101663.69
2022-08-12T23:27:50.917Z,101649.66
2022-08-12T23:30:31.197Z,101637.41
2022-08-12T23:33:01.445Z,101639.22
2022-08-12T23:35:53.982Z,101660.41
2022-08-12T23:38:31.814Z,101634.06
2022-08-12T23:41:02.862Z,101671.13
2022-08-12T23:43:39.163Z,101657.16
2022-08-12T23:46:11.558Z,101657.25
2022-08-12T23:48:40.933Z,101644.97
2022-08-12T23:51:22.549Z,101665.25
2022-08-12T23:54:00.051Z,101648.72
2022-08-12T23:56:33.559Z,101662.94
2022-08-12T23:59:03.098Z,101672.84
